createdAt,value
2018-02-20T00:01:17.860Z,16.57
2018-02-20T00:03:45.319Z,17.80
2018-02-20T00:06:12.773Z,16.33
2018-02-20T00:08:40.246Z,16.47
2018-02-20T00:11:07.693Z,16.80
2018-02-20T00:13:35.157Z,17.73
2018-02-20T00:16:02.607Z,16.70
2018-02-20T00:18:30.052Z,15.50
2018-02-20T00:20:57.499Z,16.40
2018-02-20T00:23:25.718Z,17.40
2018-02-20T00:25:53.242Z,16.43
2018-02-20T00:28:20.690Z,16.37
2018-02-20T00:30:48.971Z,16.67
2018-02-20T00:33:17.189Z,15.53
2018-02-20T00:35:44.653Z,15.73
2018-02-20T00:38:12.105Z,16.30
2018-02-20T00:40:39.561Z,18.07
2018-02-20T00:43:07.026Z,16.77
2018-02-20T00:45:34.468Z,15.30
2018-02-20T00:48:01.915Z,17.53
2018-02-20T00:50:29.365Z,16.23
2018-02-20T00:52:56.817Z,17.03
2018-02-20T00:55:24.266Z,17.63
2018-02-20T00:57:51.704Z,16.77
2018-02-20T01:00:19.945Z,16.57
2018-02-20T01:02:47.388Z,16.40
2018-02-20T01:05:14.845Z,17.60
2018-02-20T01:07:43.168Z,17.10
2018-02-20T01:10:11.389Z,16.93
2018-02-20T01:12:38.832Z,17.63
2018-02-20T01:15:06.280Z,18.03
2018-02-20T01:17:33.725Z,17.20
2018-02-20T01:20:01.945Z,16.90
2018-02-20T01:22:29.408Z,17.73
2018-02-20T01:24:56.863Z,18.60
2018-02-20T01:27:24.311Z,16.63
2018-02-20T01:29:51.767Z,16.07
2018-02-20T01:32:19.210Z,14.97
2018-02-20T01:34:46.981Z,19.27
2018-02-20T01:37:14.425Z,16.83
2018-02-20T01:39:41.868Z,16.00
2018-02-20T01:42:10.081Z,15.63
2018-02-20T01:44:37.541Z,15.63
2018-02-20T01:47:04.994Z,17.73
2018-02-20T01:49:33.127Z,17.17
2018-02-20T01:52:01.342Z,17.20
2018-02-20T01:54:28.785Z,15.83
2018-02-20T01:56:56.220Z,15.83
2018-02-20T01:59:24.446Z,16.50
2018-02-20T02:01:51.890Z,16.00
2018-02-20T02:04:19.343Z,16.30
2018-02-20T02:06:46.795Z,16.97
2018-02-20T02:09:14.251Z,16.60
2018-02-20T02:11:41.701Z,15.83
2018-02-20T02:14:09.166Z,16.23
2018-02-20T02:16:36.610Z,16.33
2018-02-20T02:19:04.068Z,14.20
2018-02-20T02:21:31.522Z,16.10
2018-02-20T02:23:58.964Z,16.70
2018-02-20T02:26:27.175Z,15.23
2018-02-20T02:28:54.621Z,16.57
2018-02-20T02:31:24.120Z,17.00
2018-02-20T02:33:51.565Z,15.87
2018-02-20T02:36:19.011Z,16.20
2018-02-20T02:38:47.237Z,17.40
2018-02-20T02:41:14.686Z,14.97
2018-02-20T02:43:42.139Z,17.40
2018-02-20T02:46:09.608Z,16.20
2018-02-20T02:48:37.058Z,15.13
2018-02-20T02:51:04.496Z,16.60
2018-02-20T02:53:31.946Z,16.13
2018-02-20T02:55:59.399Z,16.57
2018-02-20T02:58:27.628Z,18.77
2018-02-20T03:00:55.091Z,15.67
2018-02-20T03:03:22.530Z,15.67
2018-02-20T03:05:49.978Z,16.37
2018-02-20T03:08:17.431Z,16.13
2018-02-20T03:10:44.885Z,16.87
2018-02-20T03:13:12.342Z,14.10
2018-02-20T03:15:39.800Z,13.90
2018-02-20T03:18:07.249Z,15.90
2018-02-20T03:20:34.714Z,14.47
2018-02-20T03:23:02.158Z,15.27
2018-02-20T03:25:29.636Z,18.23
2018-02-20T03:27:57.093Z,15.43
2018-02-20T03:30:24.549Z,15.10
2018-02-20T03:32:52.005Z,14.67
2018-02-20T03:35:19.463Z,15.50
2018-02-20T03:37:46.923Z,15.30
2018-02-20T03:40:14.364Z,14.90
2018-02-20T03:42:41.813Z,14.90
2018-02-20T03:45:09.276Z,16.10
2018-02-20T03:47:36.724Z,15.57
2018-02-20T03:50:04.932Z,14.27
2018-02-20T03:52:32.387Z,17.17
2018-02-20T03:54:59.829Z,15.17
2018-02-20T03:57:27.301Z,16.40
2018-02-20T03:59:54.740Z,14.93
2018-02-20T04:02:22.185Z,14.90
2018-02-20T04:04:49.636Z,15.70
2018-02-20T04:07:17.846Z,15.63
2018-02-20T04:09:45.306Z,14.30
2018-02-20T04:12:12.755Z,14.37
2018-02-20T04:14:40.211Z,16.80
2018-02-20T04:17:07.649Z,15.20
2018-02-20T04:19:35.110Z,13.37
2018-02-20T04:22:03.488Z,15.50
2018-02-20T04:24:30.942Z,15.77
2018-02-20T04:26:58.392Z,15.27
2018-02-20T04:29:26.613Z,15.40
2018-02-20T04:31:54.064Z,14.07
2018-02-20T04:34:21.501Z,16.43
2018-02-20T04:36:48.936Z,15.10
2018-02-20T04:39:17.149Z,15.10
2018-02-20T04:41:44.594Z,15.97
2018-02-20T04:44:12.044Z,15.53
2018-02-20T04:46:39.520Z,14.70
2018-02-20T04:49:06.981Z,16.73
2018-02-20T04:51:34.425Z,14.90
2018-02-20T04:54:01.871Z,15.57
2018-02-20T04:56:29.316Z,16.60
2018-02-20T04:58:57.526Z,16.33
2018-02-20T05:01:24.979Z,15.40
2018-02-20T05:03:52.414Z,14.03
2018-02-20T05:06:19.868Z,15.20
2018-02-20T05:08:47.302Z,15.60
2018-02-20T05:11:15.551Z,15.20
2018-02-20T05:13:42.997Z,15.27
2018-02-20T05:16:18.579Z,15.23
2018-02-20T05:18:46.053Z,14.90
2018-02-20T05:21:14.273Z,14.43
2018-02-20T05:23:41.718Z,16.00
2018-02-20T05:26:09.254Z,15.23
2018-02-20T05:28:37.465Z,14.50
2018-02-20T05:31:04.996Z,15.40
2018-02-20T05:33:32.436Z,15.80
2018-02-20T05:36:00.658Z,17.03
2018-02-20T05:38:28.169Z,17.00
2018-02-20T05:40:56.387Z,17.63
2018-02-20T05:43:23.847Z,15.53
2018-02-20T05:45:51.784Z,17.00
2018-02-20T05:48:19.245Z,17.07
2018-02-20T05:50:46.703Z,17.40
2018-02-20T05:53:14.149Z,17.17
2018-02-20T05:55:41.597Z,17.10
2018-02-20T05:58:09.823Z,16.50
2018-02-20T06:00:37.280Z,14.60
2018-02-20T06:03:04.723Z,16.23
2018-02-20T06:05:32.186Z,16.30
2018-02-20T06:07:59.652Z,16.57
2018-02-20T06:10:27.117Z,16.67
2018-02-20T06:12:54.554Z,17.93
2018-02-20T06:15:21.999Z,16.53
2018-02-20T06:17:49.438Z,18.20
2018-02-20T06:20:16.908Z,17.33
2018-02-20T06:22:44.348Z,17.77
2018-02-20T06:25:12.579Z,18.57
2018-02-20T06:27:40.081Z,19.40
2018-02-20T06:30:08.302Z,18.47
2018-02-20T06:32:35.760Z,17.27
2018-02-20T06:35:03.245Z,18.90
2018-02-20T06:37:30.686Z,19.60
2018-02-20T06:39:58.145Z,19.77
2018-02-20T06:42:25.608Z,19.40
2018-02-20T06:44:53.076Z,20.10
2018-02-20T06:47:20.512Z,21.40
2018-02-20T06:49:48.001Z,19.20
2018-02-20T06:52:15.456Z,19.20
2018-02-20T06:54:42.908Z,19.40
2018-02-20T06:57:10.360Z,19.23
2018-02-20T06:59:37.817Z,19.33
2018-02-20T07:02:05.259Z,21.57
2018-02-20T07:04:32.704Z,19.67
2018-02-20T07:07:00.161Z,19.80
2018-02-20T07:09:27.598Z,19.00
2018-02-20T07:11:55.035Z,19.63
2018-02-20T07:14:22.491Z,21.93
2018-02-20T07:16:50.709Z,19.87
2018-02-20T07:19:18.156Z,18.00
2018-02-20T07:21:45.615Z,21.60
2018-02-20T07:24:13.048Z,21.10
2018-02-20T07:26:40.499Z,22.20
2018-02-20T07:29:07.940Z,18.90
2018-02-20T07:31:38.179Z,20.60
2018-02-20T07:34:05.624Z,18.90
2018-02-20T07:36:33.844Z,18.37
2018-02-20T07:39:01.299Z,19.00
2018-02-20T07:41:28.749Z,19.93
2018-02-20T07:43:56.204Z,20.93
2018-02-20T07:46:23.625Z,17.87
2018-02-20T07:48:51.849Z,20.87
2018-02-20T07:51:19.344Z,20.13
2018-02-20T07:53:46.792Z,19.37
2018-02-20T07:56:14.244Z,19.17
2018-02-20T07:58:41.712Z,19.47
2018-02-20T08:01:09.172Z,19.70
2018-02-20T08:03:36.661Z,20.67
2018-02-20T08:06:04.126Z,17.40
2018-02-20T08:08:31.568Z,19.63
2018-02-20T08:10:59.790Z,20.57
2018-02-20T08:13:27.268Z,19.97
2018-02-20T08:15:54.707Z,21.60
2018-02-20T08:18:22.143Z,21.13
2018-02-20T08:20:49.593Z,19.20
2018-02-20T08:23:17.038Z,19.97
2018-02-20T08:25:44.497Z,20.10
2018-02-20T08:28:11.932Z,19.67
2018-02-20T08:30:40.156Z,20.73
2018-02-20T08:33:07.607Z,19.30
2018-02-20T08:35:35.068Z,19.73
2018-02-20T08:38:02.512Z,18.93
2018-02-20T08:40:29.961Z,20.83
2018-02-20T08:42:57.408Z,21.00
2018-02-20T08:45:25.636Z,19.07
2018-02-20T08:47:53.073Z,20.67
2018-02-20T08:50:20.518Z,20.47
2018-02-20T08:52:47.975Z,20.10
2018-02-20T08:55:15.431Z,21.10
2018-02-20T08:57:42.869Z,19.07
2018-02-20T09:00:11.092Z,19.30
2018-02-20T09:02:38.556Z,20.17
2018-02-20T09:05:06.029Z,21.67
2018-02-20T09:07:33.499Z,19.83
2018-02-20T09:10:00.927Z,22.43
2018-02-20T09:12:28.368Z,22.57
2018-02-20T09:14:55.801Z,20.40
2018-02-20T09:17:23.237Z,20.37
2018-02-20T09:19:51.451Z,21.93
2018-02-20T09:22:18.897Z,22.53
2018-02-20T09:24:46.338Z,20.40
2018-02-20T09:27:13.790Z,20.73
2018-02-20T09:29:42.015Z,22.67
2018-02-20T09:32:09.517Z,21.37
2018-02-20T09:34:37.730Z,23.43
2018-02-20T09:37:05.175Z,22.27
2018-02-20T09:39:32.651Z,22.90
2018-02-20T09:42:00.076Z,23.53
2018-02-20T09:44:27.537Z,23.50
2018-02-20T09:46:55.801Z,25.27
2018-02-20T09:49:24.062Z,21.87
2018-02-20T09:51:51.558Z,21.07
2018-02-20T09:54:19.074Z,22.80
2018-02-20T09:56:46.547Z,24.60
2018-02-20T09:59:13.975Z,21.43
2018-02-20T10:01:41.418Z,21.10
2018-02-20T10:04:09.639Z,21.90
2018-02-20T10:06:37.849Z,21.00
2018-02-20T10:09:05.297Z,22.63
2018-02-20T10:11:32.745Z,22.90
2018-02-20T10:14:00.187Z,23.13
2018-02-20T10:16:28.391Z,22.27
2018-02-20T10:18:55.828Z,22.40
2018-02-20T10:21:23.282Z,20.87
2018-02-20T10:23:51.492Z,22.83
2018-02-20T10:26:18.951Z,22.23
2018-02-20T10:28:46.410Z,21.93
2018-02-20T10:31:13.827Z,22.70
2018-02-20T10:33:42.050Z,20.40
2018-02-20T10:36:09.507Z,22.80
2018-02-20T10:38:36.960Z,23.57
2018-02-20T10:41:04.528Z,21.80
2018-02-20T10:43:31.948Z,22.73
2018-02-20T10:45:59.590Z,24.93
2018-02-20T10:48:28.003Z,23.63
2018-02-20T10:50:55.473Z,23.23
2018-02-20T10:53:22.947Z,25.03
2018-02-20T10:55:50.388Z,21.80
2018-02-20T10:58:17.848Z,22.47
2018-02-20T11:00:45.307Z,22.60
2018-02-20T11:03:12.742Z,24.47
2018-02-20T11:05:40.175Z,20.77
2018-02-20T11:08:08.387Z,22.50
2018-02-20T11:10:35.831Z,23.63
2018-02-20T11:13:03.321Z,22.20
2018-02-20T11:15:30.804Z,22.07
2018-02-20T11:17:58.320Z,21.10
2018-02-20T11:20:25.801Z,19.90
2018-02-20T11:22:59.381Z,21.27
2018-02-20T11:25:26.822Z,20.60
2018-02-20T11:27:54.261Z,21.17
2018-02-20T11:30:22.041Z,23.00
2018-02-20T11:32:49.687Z,20.23
2018-02-20T11:35:18.168Z,21.90
2018-02-20T11:37:46.375Z,22.60
2018-02-20T11:40:13.955Z,20.63
2018-02-20T11:42:41.385Z,20.53
2018-02-20T11:45:08.826Z,20.17
2018-02-20T11:47:36.261Z,18.63
2018-02-20T11:50:04.474Z,19.80
2018-02-20T11:52:32.022Z,19.60
2018-02-20T11:54:59.452Z,20.30
2018-02-20T11:57:27.661Z,20.23
2018-02-20T11:59:55.126Z,20.00
2018-02-20T12:02:22.558Z,19.33
2018-02-20T12:04:50.017Z,17.77
2018-02-20T12:07:18.268Z,19.10
2018-02-20T12:09:46.042Z,18.27
2018-02-20T12:12:13.664Z,18.93
2018-02-20T12:14:41.113Z,17.40
2018-02-20T12:17:08.560Z,18.07
2018-02-20T12:19:36.030Z,17.37
2018-02-20T12:22:03.479Z,18.10
2018-02-20T12:24:30.928Z,17.93
2018-02-20T12:26:58.387Z,16.50
2018-02-20T12:29:25.825Z,16.47
2018-02-20T12:31:54.292Z,18.17
2018-02-20T12:34:22.506Z,16.57
2018-02-20T12:36:50.049Z,16.80
2018-02-20T12:39:17.472Z,15.10
2018-02-20T12:41:45.693Z,14.50
2018-02-20T12:44:13.133Z,16.33
2018-02-20T12:46:40.583Z,14.37
2018-02-20T12:49:08.024Z,13.90
2018-02-20T12:51:36.217Z,18.07
2018-02-20T12:54:03.664Z,15.20
2018-02-20T12:56:31.867Z,17.10
2018-02-20T12:58:59.318Z,18.10
2018-02-20T13:01:26.740Z,17.60
2018-02-20T13:03:55.095Z,17.83
2018-02-20T13:06:22.560Z,17.87
2018-02-20T13:08:50.011Z,16.10
2018-02-20T13:11:17.582Z,18.23
2018-02-20T13:13:45.026Z,16.37
2018-02-20T13:16:12.682Z,18.23
2018-02-20T13:18:40.181Z,16.73
2018-02-20T13:21:08.383Z,18.00
2018-02-20T13:23:35.826Z,17.00
2018-02-20T13:26:03.321Z,16.60
2018-02-20T13:28:30.760Z,18.97
2018-02-20T13:30:58.225Z,17.73
2018-02-20T13:33:25.779Z,16.57
2018-02-20T13:35:53.278Z,18.27
2018-02-20T13:38:20.729Z,16.30
2018-02-20T13:40:48.173Z,18.77
2018-02-20T13:43:15.622Z,17.57
2018-02-20T13:45:43.070Z,19.47
2018-02-20T13:48:10.616Z,19.10
2018-02-20T13:50:38.068Z,17.93
2018-02-20T13:53:05.544Z,17.87
2018-02-20T13:55:33.080Z,16.93
2018-02-20T13:58:00.522Z,16.63
2018-02-20T14:00:28.733Z,16.50
2018-02-20T14:02:56.193Z,16.87
2018-02-20T14:05:23.721Z,18.60
2018-02-20T14:07:51.275Z,17.97
2018-02-20T14:10:19.484Z,20.23
2018-02-20T14:12:46.940Z,18.90
2018-02-20T14:15:14.388Z,17.07
2018-02-20T14:17:41.822Z,18.73
2018-02-20T14:20:09.497Z,18.23
2018-02-20T14:22:36.964Z,18.50
2018-02-20T14:25:04.402Z,16.57
2018-02-20T14:27:31.904Z,17.00
2018-02-20T14:29:59.412Z,17.97
2018-02-20T14:32:27.658Z,18.90
2018-02-20T14:34:55.119Z,15.60
2018-02-20T14:37:22.597Z,18.00
2018-02-20T14:39:50.813Z,17.27
2018-02-20T14:42:18.332Z,18.77
2018-02-20T14:44:46.550Z,16.60
2018-02-20T14:47:14.013Z,16.97
2018-02-20T14:49:41.466Z,18.63
2018-02-20T14:52:08.996Z,17.53
2018-02-20T14:54:37.195Z,18.83
2018-02-20T14:57:04.650Z,15.73
2018-02-20T14:59:32.122Z,17.47
2018-02-20T15:02:00.349Z,18.70
2018-02-20T15:04:28.556Z,18.13
2018-02-20T15:06:56.002Z,15.37
2018-02-20T15:09:23.453Z,17.07
2018-02-20T15:11:50.883Z,17.00
2018-02-20T15:14:19.176Z,18.10
2018-02-20T15:16:46.640Z,16.33
2018-02-20T15:19:14.104Z,14.83
2018-02-20T15:21:41.658Z,16.07
2018-02-20T15:24:09.103Z,17.20
2018-02-20T15:26:37.299Z,17.60
2018-02-20T15:29:04.747Z,16.33
2018-02-20T15:31:32.290Z,18.17
2018-02-20T15:34:00.509Z,20.07
2018-02-20T15:36:27.971Z,17.53
2018-02-20T15:38:55.410Z,17.17
2018-02-20T15:41:22.861Z,17.97
2018-02-20T15:43:50.311Z,18.03
2018-02-20T15:46:17.767Z,18.73
2018-02-20T15:48:45.214Z,18.90
2018-02-20T15:51:13.428Z,20.70
2018-02-20T15:53:40.876Z,22.33
2018-02-20T15:56:08.367Z,23.53
2018-02-20T15:58:36.781Z,21.13
2018-02-20T16:01:05.012Z,23.20
2018-02-20T16:03:32.468Z,23.70
2018-02-20T16:05:59.995Z,21.33
2018-02-20T16:08:27.491Z,18.43
2018-02-20T16:10:54.948Z,20.40
2018-02-20T16:13:22.404Z,24.90
2018-02-20T16:15:50.721Z,24.20
2018-02-20T16:18:19.951Z,23.30
2018-02-20T16:20:47.483Z,22.27
2018-02-20T16:23:15.709Z,22.33
2018-02-20T16:25:43.155Z,21.90
2018-02-20T16:28:10.614Z,23.07
2018-02-20T16:30:38.076Z,25.90
2018-02-20T16:33:05.618Z,22.63
2018-02-20T16:35:33.121Z,22.87
2018-02-20T16:38:00.586Z,25.90
2018-02-20T16:40:28.025Z,23.03
2018-02-20T16:42:55.484Z,22.80
2018-02-20T16:45:22.935Z,25.00
2018-02-20T16:47:50.456Z,25.43
2018-02-20T16:50:17.908Z,23.23
2018-02-20T16:52:45.370Z,24.97
2018-02-20T16:55:12.825Z,23.37
2018-02-20T16:57:40.294Z,24.47
2018-02-20T17:00:07.833Z,23.20
2018-02-20T17:02:35.286Z,23.83
2018-02-20T17:05:03.552Z,24.57
2018-02-20T17:07:31.032Z,24.97
2018-02-20T17:09:58.487Z,25.37
2018-02-20T17:12:26.183Z,24.40
2018-02-20T17:14:53.629Z,25.53
2018-02-20T17:17:21.283Z,24.87
2018-02-20T17:19:48.753Z,23.13
2018-02-20T17:22:16.282Z,26.90
2018-02-20T17:24:44.513Z,23.63
2018-02-20T17:27:11.961Z,25.17
2018-02-20T17:29:40.414Z,24.13
2018-02-20T17:32:07.872Z,23.37
2018-02-20T17:34:35.343Z,25.33
2018-02-20T17:37:02.776Z,23.70
2018-02-20T17:39:30.233Z,24.87
2018-02-20T17:41:57.684Z,27.20
2018-02-20T17:44:25.151Z,24.90
2018-02-20T17:46:52.624Z,25.67
2018-02-20T17:49:20.062Z,25.07
2018-02-20T17:51:47.512Z,24.93
2018-02-20T17:54:15.067Z,24.13
2018-02-20T17:56:43.283Z,24.40
2018-02-20T17:59:10.730Z,24.97
2018-02-20T18:01:38.268Z,29.03
2018-02-20T18:04:05.756Z,26.47
2018-02-20T18:06:33.271Z,23.63
2018-02-20T18:09:01.492Z,26.67
2018-02-20T18:11:28.926Z,24.20
2018-02-20T18:13:56.458Z,25.80
2018-02-20T18:16:24.670Z,24.07
2018-02-20T18:18:52.228Z,25.30
2018-02-20T18:21:19.693Z,24.80
2018-02-20T18:23:47.143Z,24.07
2018-02-20T18:26:14.688Z,25.10
2018-02-20T18:28:42.174Z,24.97
2018-02-20T18:31:09.719Z,26.40
2018-02-20T18:33:37.911Z,23.60
2018-02-20T18:36:06.120Z,26.17
2018-02-20T18:38:33.576Z,26.40
2018-02-20T18:41:01.017Z,23.33
2018-02-20T18:43:28.463Z,26.07
2018-02-20T18:45:55.951Z,24.80
2018-02-20T18:48:24.227Z,24.70
2018-02-20T18:50:51.694Z,25.37
2018-02-20T18:53:19.913Z,24.20
2018-02-20T18:55:47.366Z,25.17
2018-02-20T18:58:14.843Z,21.90
2018-02-20T19:00:42.324Z,21.50
2018-02-20T19:03:09.781Z,23.20
2018-02-20T19:05:37.230Z,21.70
2018-02-20T19:08:04.684Z,20.70
2018-02-20T19:10:32.129Z,22.90
2018-02-20T19:12:59.627Z,21.53
2018-02-20T19:15:27.860Z,21.20
2018-02-20T19:17:55.301Z,22.00
2018-02-20T19:20:22.753Z,20.73
2018-02-20T19:22:50.211Z,21.00
2018-02-20T19:25:17.685Z,22.00
2018-02-20T19:27:45.140Z,22.60
2018-02-20T19:30:12.600Z,23.70
2018-02-20T19:32:40.149Z,23.70
2018-02-20T19:35:07.681Z,22.20
2018-02-20T19:37:35.168Z,21.23
2018-02-20T19:40:02.684Z,22.43
2018-02-20T19:42:30.979Z,20.60
2018-02-20T19:44:58.432Z,21.80
2018-02-20T19:47:25.918Z,22.43
2018-02-20T19:49:53.437Z,22.00
2018-02-20T19:52:21.654Z,22.30
2018-02-20T19:54:49.125Z,21.47
2018-02-20T19:57:16.577Z,22.57
2018-02-20T19:59:44.417Z,25.70
2018-02-20T20:02:12.509Z,21.30
2018-02-20T20:04:39.960Z,25.23
2018-02-20T20:07:07.420Z,23.70
2018-02-20T20:09:34.877Z,21.73
2018-02-20T20:12:02.325Z,22.20
2018-02-20T20:14:29.777Z,19.17
2018-02-20T20:16:57.217Z,22.90
2018-02-20T20:19:25.550Z,21.90
2018-02-20T20:21:53.004Z,20.00
2018-02-20T20:24:20.441Z,23.20
2018-02-20T20:26:47.881Z,21.60
2018-02-20T20:29:15.329Z,22.13
2018-02-20T20:31:43.810Z,20.87
2018-02-20T20:34:11.260Z,22.30
2018-02-20T20:36:39.476Z,22.97
2018-02-20T20:39:06.936Z,23.23
2018-02-20T20:41:34.372Z,22.40
2018-02-20T20:44:01.865Z,21.33
2018-02-20T20:46:29.345Z,24.77
2018-02-20T20:48:56.824Z,23.50
2018-02-20T20:51:24.281Z,23.30
2018-02-20T20:53:52.505Z,22.93
2018-02-20T20:56:19.955Z,21.60
2018-02-20T20:58:47.414Z,21.40
2018-02-20T21:01:15.902Z,24.23
2018-02-20T21:03:43.350Z,24.20
2018-02-20T21:06:10.784Z,22.47
2018-02-20T21:08:38.342Z,21.20
2018-02-20T21:11:05.794Z,22.83
2018-02-20T21:13:33.234Z,23.77
2018-02-20T21:16:01.445Z,23.00
2018-02-20T21:18:28.905Z,22.47
2018-02-20T21:20:56.354Z,24.53
2018-02-20T21:23:23.805Z,23.53
2018-02-20T21:25:51.291Z,27.07
2018-02-20T21:28:18.792Z,25.37
2018-02-20T21:30:47.028Z,25.07
2018-02-20T21:33:14.483Z,24.27
2018-02-20T21:35:41.964Z,24.70
2018-02-20T21:38:09.394Z,24.53
2018-02-20T21:40:36.837Z,25.47
2018-02-20T21:43:04.283Z,26.03
2018-02-20T21:45:31.746Z,24.23
2018-02-20T21:47:59.188Z,25.33
2018-02-20T21:50:26.641Z,24.50
2018-02-20T21:52:54.091Z,24.97
2018-02-20T21:55:22.301Z,23.53
2018-02-20T21:57:49.740Z,22.73
2018-02-20T22:00:17.198Z,27.70
2018-02-20T22:02:44.653Z,27.93
2018-02-20T22:05:12.113Z,24.57
2018-02-20T22:07:39.595Z,30.90
2018-02-20T22:10:07.057Z,26.60
2018-02-20T22:12:34.501Z,29.77
2018-02-20T22:15:01.958Z,25.90
2018-02-20T22:17:29.414Z,27.67
2018-02-20T22:19:56.881Z,26.00
2018-02-20T22:22:24.322Z,25.43
2018-02-20T22:24:51.781Z,27.40
2018-02-20T22:27:19.231Z,28.33
2018-02-20T22:29:46.685Z,29.10
2018-02-20T22:32:14.127Z,28.27
2018-02-20T22:34:42.352Z,28.57
2018-02-20T22:37:09.808Z,27.90
2018-02-20T22:39:37.260Z,30.70
2018-02-20T22:42:04.705Z,23.30
2018-02-20T22:44:32.167Z,27.73
2018-02-20T22:46:59.626Z,29.10
2018-02-20T22:49:27.136Z,28.13
2018-02-20T22:51:54.530Z,29.30
2018-02-20T22:54:21.981Z,30.03
2018-02-20T22:56:49.424Z,27.23
2018-02-20T22:59:16.875Z,28.37
2018-02-20T23:01:45.092Z,27.03
2018-02-20T23:04:12.610Z,28.83
2018-02-20T23:06:40.841Z,29.27
2018-02-20T23:09:08.289Z,29.80
2018-02-20T23:11:47.640Z,28.00
2018-02-20T23:14:15.105Z,27.70
2018-02-20T23:16:43.346Z,28.23
2018-02-20T23:19:10.794Z,25.80
2018-02-20T23:21:38.242Z,30.50
2018-02-20T23:24:05.681Z,28.87
2018-02-20T23:26:33.908Z,30.23
2018-02-20T23:29:01.350Z,28.60
2018-02-20T23:31:28.867Z,30.07
2018-02-20T23:33:57.087Z,28.60
2018-02-20T23:36:24.538Z,27.27
2018-02-20T23:38:51.994Z,25.77
2018-02-20T23:41:19.459Z,29.37
2018-02-20T23:43:46.921Z,26.90
2018-02-20T23:46:14.391Z,27.77
2018-02-20T23:48:42.596Z,32.60
2018-02-20T23:51:16.587Z,29.50
2018-02-20T23:53:44.041Z,28.07
2018-02-20T23:56:11.496Z,29.80
2018-02-20T23:58:38.940Z,28.43
